createdAt,value
2022-11-17T00:00:05.034Z,7.00
2022-11-17T00:01:05.069Z,6.10
2022-11-17T00:02:05.274Z,4.90
2022-11-17T00:03:05.250Z,5.70
2022-11-17T00:04:05.080Z,5.70
2022-11-17T00:05:05.079Z,6.20
2022-11-17T00:06:05.080Z,5.60
2022-11-17T00:07:05.115Z,6.50
2022-11-17T00:08:05.113Z,7.80
2022-11-17T00:09:05.308Z,7.00
2022-11-17T00:10:05.309Z,4.70
2022-11-17T00:11:05.339Z,6.20
2022-11-17T00:12:04.891Z,4.60
2022-11-17T00:13:04.910Z,4.80
2022-11-17T00:14:04.921Z,4.10
2022-11-17T00:15:05.357Z,4.20
2022-11-17T00:16:05.157Z,7.10
2022-11-17T00:17:04.923Z,7.30
2022-11-17T00:18:05.359Z,4.90
2022-11-17T00:19:05.558Z,3.30
2022-11-17T00:20:05.036Z,5.30
2022-11-17T00:21:05.578Z,4.20
2022-11-17T00:22:05.576Z,6.60
2022-11-17T00:23:05.389Z,7.00
2022-11-17T00:24:04.814Z,5.70
2022-11-17T00:25:05.000Z,3.60
2022-11-17T00:26:05.809Z,5.40
2022-11-17T00:27:04.817Z,5.10
2022-11-17T00:28:05.196Z,6.50
2022-11-17T00:29:05.416Z,6.30
2022-11-17T00:30:05.268Z,7.30
2022-11-17T00:31:05.214Z,6.20
2022-11-17T00:32:05.634Z,7.00
2022-11-17T00:33:05.239Z,5.30
2022-11-17T00:34:04.864Z,7.40
2022-11-17T00:35:04.786Z,5.30
2022-11-17T00:36:04.737Z,6.20
2022-11-17T00:37:04.752Z,8.40
2022-11-17T00:38:04.732Z,7.30
2022-11-17T00:39:04.694Z,4.80
2022-11-17T00:40:04.692Z,7.00
2022-11-17T00:41:04.699Z,5.60
2022-11-17T00:42:04.683Z,6.20
2022-11-17T00:43:04.693Z,5.90
2022-11-17T00:44:04.694Z,7.10
2022-11-17T00:45:04.701Z,6.80
2022-11-17T00:46:04.762Z,5.80
2022-11-17T00:47:04.723Z,5.20
2022-11-17T00:48:04.727Z,5.80
2022-11-17T00:49:04.730Z,4.10
2022-11-17T00:50:04.620Z,6.20
2022-11-17T00:51:04.664Z,6.60
2022-11-17T00:52:04.648Z,6.70
2022-11-17T00:53:04.763Z,6.60
2022-11-17T00:54:04.809Z,5.90
2022-11-17T00:55:04.665Z,6.30
2022-11-17T00:56:04.608Z,6.10
2022-11-17T00:57:04.836Z,8.50
2022-11-17T00:58:04.577Z,5.40
2022-11-17T00:59:04.591Z,4.90
2022-11-17T01:00:04.797Z,7.80
2022-11-17T01:01:04.635Z,6.80
2022-11-17T01:02:05.034Z,6.90
2022-11-17T01:03:05.034Z,5.40
2022-11-17T01:04:04.721Z,7.00
2022-11-17T01:05:04.619Z,5.80
2022-11-17T01:06:04.688Z,5.60
2022-11-17T01:07:04.582Z,4.50
2022-11-17T01:08:05.047Z,6.00
2022-11-17T01:09:05.068Z,7.00
2022-11-17T01:10:05.069Z,5.10
2022-11-17T01:11:04.480Z,7.30
2022-11-17T01:12:04.488Z,4.90
2022-11-17T01:13:04.492Z,5.70
2022-11-17T01:14:04.573Z,5.20
2022-11-17T01:15:04.537Z,5.90
2022-11-17T01:16:04.708Z,5.60
2022-11-17T01:17:04.496Z,6.40
2022-11-17T01:18:04.575Z,5.90
2022-11-17T01:19:04.520Z,5.40
2022-11-17T01:20:04.516Z,5.50
2022-11-17T01:21:04.544Z,4.30
2022-11-17T01:22:04.534Z,5.60
2022-11-17T01:23:04.409Z,4.50
2022-11-17T01:24:04.407Z,7.80
2022-11-17T01:25:04.404Z,3.10
2022-11-17T01:26:04.397Z,8.50
2022-11-17T01:27:04.415Z,5.40
2022-11-17T01:28:04.362Z,9.90
2022-11-17T01:29:04.575Z,4.40
2022-11-17T01:30:04.617Z,4.90
2022-11-17T01:31:04.390Z,5.20
2022-11-17T01:32:04.595Z,4.30
2022-11-17T01:33:04.463Z,4.50
2022-11-17T01:34:04.618Z,6.20
2022-11-17T01:35:04.614Z,3.90
2022-11-17T01:36:04.624Z,6.40
2022-11-17T01:37:04.637Z,3.20
2022-11-17T01:38:04.633Z,5.30
2022-11-17T01:39:04.305Z,3.60
2022-11-17T01:40:04.641Z,6.80
2022-11-17T01:41:04.303Z,4.80
2022-11-17T01:42:04.324Z,4.90
2022-11-17T01:43:04.329Z,4.60
2022-11-17T01:44:04.481Z,4.90
2022-11-17T01:45:04.292Z,3.60
2022-11-17T01:46:04.242Z,3.00
2022-11-17T01:47:04.561Z,4.60
2022-11-17T01:48:04.711Z,5.00
2022-11-17T01:49:04.710Z,6.40
2022-11-17T01:50:04.300Z,4.50
2022-11-17T01:51:04.321Z,4.40
2022-11-17T01:52:04.360Z,5.50
2022-11-17T01:53:04.220Z,7.00
2022-11-17T01:54:04.332Z,4.70
2022-11-17T01:55:04.201Z,5.70
2022-11-17T01:56:04.420Z,4.10
2022-11-17T01:57:04.209Z,4.10
2022-11-17T01:58:04.979Z,7.00
2022-11-17T01:59:04.362Z,4.70
2022-11-17T02:00:04.590Z,6.80
2022-11-17T02:01:04.168Z,4.80
2022-11-17T02:02:04.632Z,5.30
2022-11-17T02:03:04.259Z,7.10
2022-11-17T02:04:04.797Z,4.20
2022-11-17T02:06:30.083Z,4.90
2022-11-17T02:07:30.182Z,4.30
2022-11-17T02:08:30.099Z,4.40
2022-11-17T02:09:30.046Z,6.20
2022-11-17T02:10:30.029Z,5.20
2022-11-17T02:11:30.041Z,5.10
2022-11-17T02:12:30.039Z,5.40
2022-11-17T02:13:30.047Z,5.80
2022-11-17T02:14:30.009Z,3.50
2022-11-17T02:15:30.078Z,3.70
2022-11-17T02:16:29.989Z,5.80
2022-11-17T02:17:30.091Z,5.50
2022-11-17T02:18:30.093Z,4.90
2022-11-17T02:19:30.157Z,4.10
2022-11-17T02:20:30.096Z,4.40
2022-11-17T02:21:30.180Z,4.50
2022-11-17T02:22:30.185Z,5.40
2022-11-17T02:23:30.194Z,5.00
2022-11-17T02:24:29.946Z,2.80
2022-11-17T02:25:29.936Z,3.70
2022-11-17T02:26:29.934Z,3.70
2022-11-17T02:27:29.934Z,5.00
2022-11-17T02:28:29.935Z,2.60
2022-11-17T02:29:30.025Z,4.40
2022-11-17T02:30:29.955Z,6.50
2022-11-17T02:31:29.965Z,5.80
2022-11-17T02:32:29.965Z,4.00
2022-11-17T02:33:30.052Z,3.70
2022-11-17T02:34:30.263Z,5.50
2022-11-17T02:35:30.292Z,6.00
2022-11-17T02:36:30.188Z,6.20
2022-11-17T02:37:30.421Z,3.80
2022-11-17T02:38:30.413Z,6.20
2022-11-17T02:39:29.846Z,4.60
2022-11-17T02:40:29.832Z,4.10
2022-11-17T02:41:30.320Z,4.90
2022-11-17T02:42:30.121Z,5.20
2022-11-17T02:43:30.459Z,2.90
2022-11-17T02:44:30.450Z,8.00
2022-11-17T02:45:30.466Z,5.90
2022-11-17T02:46:30.270Z,5.10
2022-11-17T02:47:30.060Z,4.70
2022-11-17T02:48:30.281Z,3.10
2022-11-17T02:49:30.575Z,6.60
2022-11-17T02:50:29.830Z,2.90
2022-11-17T02:51:30.501Z,5.30
2022-11-17T02:52:30.088Z,3.30
2022-11-17T02:53:30.509Z,2.40
2022-11-17T02:54:29.801Z,4.20
2022-11-17T02:55:29.729Z,3.30
2022-11-17T02:56:29.719Z,2.90
2022-11-17T02:57:29.719Z,2.60
2022-11-17T02:58:29.728Z,2.60
2022-11-17T02:59:30.138Z,3.30
2022-11-17T03:00:29.800Z,3.30
2022-11-17T03:01:30.646Z,4.40
2022-11-17T03:02:29.687Z,2.70
2022-11-17T03:03:30.265Z,3.80
2022-11-17T03:04:29.678Z,4.10
2022-11-17T03:05:29.679Z,2.10
2022-11-17T03:06:29.797Z,2.20
2022-11-17T03:07:29.813Z,3.30
2022-11-17T03:08:32.990Z,5.00
2022-11-17T03:09:29.710Z,1.60
2022-11-17T03:10:29.628Z,2.90
2022-11-17T03:11:29.635Z,5.50
2022-11-17T03:12:29.722Z,2.40
2022-11-17T03:13:29.728Z,3.60
2022-11-17T03:14:29.835Z,4.30
2022-11-17T03:15:29.753Z,4.50
2022-11-17T03:16:29.857Z,3.70
2022-11-17T03:17:29.859Z,3.50
2022-11-17T03:18:29.586Z,3.20
2022-11-17T03:19:29.863Z,3.90
2022-11-17T03:20:29.555Z,3.10
2022-11-17T03:21:29.573Z,4.10
2022-11-17T03:22:29.774Z,6.00
2022-11-17T03:23:29.785Z,4.40
2022-11-17T03:24:29.783Z,3.90
2022-11-17T03:25:29.582Z,4.30
2022-11-17T03:26:30.014Z,4.80
2022-11-17T03:27:29.522Z,4.00
2022-11-17T03:28:30.021Z,4.50
2022-11-17T03:29:29.822Z,4.00
2022-11-17T03:30:34.617Z,4.00
2022-11-17T03:31:30.045Z,2.50
2022-11-17T03:32:30.051Z,6.00
2022-11-17T03:33:30.059Z,3.70
2022-11-17T03:34:29.961Z,4.40
2022-11-17T03:35:30.072Z,5.90
2022-11-17T03:36:30.080Z,4.90
2022-11-17T03:37:30.182Z,4.40
2022-11-17T03:38:29.680Z,5.10
2022-11-17T03:39:30.199Z,4.10
2022-11-17T03:40:29.500Z,4.10
2022-11-17T03:41:29.419Z,3.60
2022-11-17T03:42:29.420Z,4.40
2022-11-17T03:43:29.420Z,4.00
2022-11-17T03:44:29.422Z,5.40
2022-11-17T03:45:29.430Z,7.20
2022-11-17T03:46:29.431Z,4.90
2022-11-17T03:47:29.430Z,4.10
2022-11-17T03:48:29.371Z,4.10
2022-11-17T03:49:29.443Z,3.70
2022-11-17T03:50:29.460Z,5.20
2022-11-17T03:51:29.349Z,4.50
2022-11-17T03:52:29.368Z,4.10
2022-11-17T03:53:29.475Z,5.10
2022-11-17T03:54:29.595Z,5.80
2022-11-17T03:55:29.587Z,8.90
2022-11-17T03:56:29.485Z,5.50
2022-11-17T03:57:29.306Z,5.40
2022-11-17T03:58:29.614Z,5.10
2022-11-17T03:59:29.317Z,5.40
2022-11-17T04:00:29.308Z,4.60
2022-11-17T04:01:29.344Z,4.00
2022-11-17T04:02:29.637Z,4.20
2022-11-17T04:03:29.645Z,3.70
2022-11-17T04:04:29.277Z,3.20
2022-11-17T04:05:29.264Z,5.00
2022-11-17T04:06:29.375Z,3.50
2022-11-17T04:07:29.443Z,3.10
2022-11-17T04:08:29.490Z,4.40
2022-11-17T04:09:29.275Z,4.40
2022-11-17T04:10:29.502Z,4.90
2022-11-17T04:11:29.614Z,5.50
2022-11-17T04:12:29.613Z,5.10
2022-11-17T04:13:29.723Z,4.80
2022-11-17T04:14:29.311Z,4.50
2022-11-17T04:15:29.194Z,4.90
2022-11-17T04:16:29.473Z,3.90
2022-11-17T04:17:29.213Z,5.70
2022-11-17T04:18:29.204Z,3.10
2022-11-17T04:19:29.183Z,3.60
2022-11-17T04:20:29.237Z,5.10
2022-11-17T04:21:29.242Z,3.80
2022-11-17T04:22:29.136Z,4.40
2022-11-17T04:23:29.372Z,3.80
2022-11-17T04:24:29.146Z,3.00
2022-11-17T04:25:29.483Z,3.10
2022-11-17T04:26:29.101Z,3.40
2022-11-17T04:27:29.111Z,1.60
2022-11-17T04:28:29.086Z,1.70
2022-11-17T04:29:29.104Z,2.10
2022-11-17T04:30:29.080Z,2.50
2022-11-17T04:31:29.072Z,2.20
2022-11-17T04:34:09.730Z,1.50
2022-11-17T04:34:55.053Z,3.20
2022-11-17T04:35:55.043Z,2.00
2022-11-17T04:36:55.074Z,2.40
2022-11-17T04:37:55.151Z,2.90
2022-11-17T04:38:55.164Z,2.20
2022-11-17T04:39:55.182Z,2.10
2022-11-17T04:40:54.991Z,2.60
2022-11-17T04:41:55.023Z,1.30
2022-11-17T04:42:54.992Z,1.70
2022-11-17T04:43:55.130Z,1.50
2022-11-17T04:44:55.133Z,2.40
2022-11-17T04:45:54.993Z,3.30
2022-11-17T04:46:55.226Z,2.10
2022-11-17T04:47:55.009Z,2.10
2022-11-17T04:48:55.429Z,1.70
2022-11-17T04:49:55.369Z,2.40
2022-11-17T04:50:55.160Z,1.80
2022-11-17T04:51:55.385Z,2.80
2022-11-17T04:52:55.039Z,2.20
2022-11-17T04:53:54.909Z,2.00
2022-11-17T04:54:54.979Z,2.10
2022-11-17T04:55:54.990Z,1.80
2022-11-17T04:56:54.903Z,2.20
2022-11-17T04:57:55.014Z,2.10
2022-11-17T04:58:54.935Z,2.20
2022-11-17T04:59:55.086Z,1.90
2022-11-17T05:00:55.227Z,1.40
2022-11-17T05:01:54.999Z,1.90
2022-11-17T05:02:54.848Z,2.30
2022-11-17T05:03:54.909Z,1.80
2022-11-17T05:04:54.916Z,1.80
2022-11-17T05:05:54.836Z,1.20
2022-11-17T05:06:54.865Z,1.70
2022-11-17T05:07:54.874Z,2.30
2022-11-17T05:08:54.936Z,1.30
2022-11-17T05:09:55.297Z,1.80
2022-11-17T05:10:55.314Z,1.20
2022-11-17T05:11:55.367Z,1.80
2022-11-17T05:12:54.786Z,1.40
2022-11-17T05:13:55.597Z,1.60
2022-11-17T05:14:54.789Z,2.10
2022-11-17T05:15:55.187Z,1.20
2022-11-17T05:16:55.825Z,1.50
2022-11-17T05:17:55.389Z,1.90
2022-11-17T05:18:55.593Z,1.30
2022-11-17T05:19:54.816Z,1.20
2022-11-17T05:20:55.166Z,1.20
2022-11-17T05:21:56.175Z,1.60
2022-11-17T05:22:55.685Z,1.20
2022-11-17T05:23:55.865Z,1.40
2022-11-17T05:24:54.776Z,1.50
2022-11-17T05:25:54.984Z,1.90
2022-11-17T05:26:55.515Z,2.80
2022-11-17T05:27:55.565Z,2.60
2022-11-17T05:28:55.215Z,2.90
2022-11-17T05:29:54.675Z,1.70
2022-11-17T05:30:54.674Z,2.00
2022-11-17T05:31:54.674Z,2.10
2022-11-17T05:32:54.685Z,2.20
2022-11-17T05:33:54.692Z,1.50
2022-11-17T05:34:54.702Z,2.50
2022-11-17T05:35:54.855Z,2.00
2022-11-17T05:36:54.863Z,1.00
2022-11-17T05:37:54.684Z,1.30
2022-11-17T05:38:54.632Z,1.80
2022-11-17T05:39:54.721Z,1.90
2022-11-17T05:40:54.693Z,4.40
2022-11-17T05:41:54.691Z,3.30
2022-11-17T05:42:57.191Z,2.30
2022-11-17T05:43:54.942Z,5.10
2022-11-17T05:44:54.716Z,4.70
2022-11-17T05:45:54.723Z,4.40
2022-11-17T05:46:54.782Z,4.10
2022-11-17T05:47:55.154Z,3.10
2022-11-17T05:48:55.162Z,2.40
2022-11-17T05:49:54.543Z,2.90
2022-11-17T05:50:54.810Z,4.30
2022-11-17T05:51:54.815Z,2.40
2022-11-17T05:52:54.561Z,3.30
2022-11-17T05:53:54.980Z,1.30
2022-11-17T05:54:54.782Z,3.60
2022-11-17T05:55:54.511Z,2.20
2022-11-17T05:56:54.643Z,2.70
2022-11-17T05:57:55.052Z,1.30
2022-11-17T05:58:55.219Z,1.30
2022-11-17T05:59:54.480Z,1.30
2022-11-17T06:00:54.479Z,2.30
2022-11-17T06:01:54.625Z,1.20
2022-11-17T06:02:54.887Z,1.00
2022-11-17T06:03:54.502Z,1.80
2022-11-17T06:04:54.850Z,1.20
2022-11-17T06:05:55.515Z,1.50
2022-11-17T06:06:55.365Z,2.20
2022-11-17T06:07:54.458Z,2.30
2022-11-17T06:08:54.468Z,1.50
2022-11-17T06:09:54.482Z,2.40
2022-11-17T06:10:54.494Z,2.30
2022-11-17T06:11:54.545Z,2.20
2022-11-17T06:12:54.697Z,1.20
2022-11-17T06:13:54.707Z,2.00
2022-11-17T06:14:54.716Z,1.30
2022-11-17T06:15:54.716Z,1.60
2022-11-17T06:16:54.526Z,1.30
2022-11-17T06:17:54.939Z,2.50
2022-11-17T06:18:54.946Z,1.70
2022-11-17T06:19:54.367Z,2.00
2022-11-17T06:20:54.547Z,2.40
2022-11-17T06:22:11.738Z,2.80
2022-11-17T06:22:54.396Z,1.90
2022-11-17T06:23:55.186Z,2.60
2022-11-17T06:24:54.989Z,1.70
2022-11-17T06:25:55.205Z,2.40
2022-11-17T06:26:55.205Z,2.30
2022-11-17T06:27:54.291Z,3.20
2022-11-17T06:28:54.434Z,2.90
2022-11-17T06:29:54.274Z,3.40
2022-11-17T06:30:54.283Z,2.10
2022-11-17T06:31:54.289Z,3.10
2022-11-17T06:32:54.276Z,3.60
2022-11-17T06:33:54.290Z,3.70
2022-11-17T06:34:56.365Z,3.40
2022-11-17T06:35:54.283Z,3.80
2022-11-17T06:36:54.243Z,2.00
2022-11-17T06:37:54.492Z,2.40
2022-11-17T06:38:54.573Z,2.90
2022-11-17T06:39:54.505Z,4.00
2022-11-17T06:40:54.524Z,3.00
2022-11-17T06:41:54.513Z,4.50
2022-11-17T06:42:54.516Z,2.60
2022-11-17T06:43:54.501Z,3.10
2022-11-17T06:44:54.519Z,3.30
2022-11-17T06:45:54.168Z,6.40
2022-11-17T06:46:54.161Z,3.00
2022-11-17T06:47:54.236Z,4.60
2022-11-17T06:48:54.160Z,4.00
2022-11-17T06:49:54.344Z,4.60
2022-11-17T06:50:54.353Z,2.80
2022-11-17T06:51:54.571Z,3.30
2022-11-17T06:52:54.360Z,3.30
2022-11-17T06:53:54.200Z,3.10
2022-11-17T06:54:54.241Z,4.40
2022-11-17T06:55:54.378Z,4.50
2022-11-17T06:56:54.216Z,4.20
2022-11-17T06:57:54.299Z,5.10
2022-11-17T06:58:54.139Z,4.20
2022-11-17T06:59:54.609Z,4.30
2022-11-17T07:00:54.141Z,2.90
2022-11-17T07:01:54.058Z,3.70
2022-11-17T07:02:54.637Z,4.30
2022-11-17T07:03:54.048Z,5.70
2022-11-17T07:04:54.037Z,4.10
2022-11-17T07:05:54.037Z,5.60
2022-11-17T07:06:54.089Z,4.50
2022-11-17T07:07:54.681Z,3.60
2022-11-17T07:08:54.876Z,4.10
2022-11-17T07:09:54.094Z,3.70
2022-11-17T07:10:54.078Z,5.10
2022-11-17T07:11:54.087Z,3.80
2022-11-17T07:12:53.998Z,4.10
2022-11-17T07:13:53.996Z,3.90
2022-11-17T07:14:54.096Z,3.80
2022-11-17T07:15:54.122Z,4.60
2022-11-17T07:16:54.117Z,4.50
2022-11-17T07:17:54.159Z,3.60
2022-11-17T07:18:54.187Z,4.00
2022-11-17T07:19:54.136Z,3.90
2022-11-17T07:20:54.634Z,6.90
2022-11-17T07:21:53.943Z,5.40
2022-11-17T07:22:53.946Z,5.30
2022-11-17T07:23:53.957Z,5.40
2022-11-17T07:24:53.975Z,4.80
2022-11-17T07:25:54.176Z,6.80
2022-11-17T07:26:54.007Z,8.60
2022-11-17T07:27:54.192Z,5.40
2022-11-17T07:28:54.222Z,8.20
2022-11-17T07:29:54.233Z,5.50
2022-11-17T07:30:54.013Z,5.60
2022-11-17T07:31:54.021Z,9.70
2022-11-17T07:32:54.988Z,8.30
2022-11-17T07:33:54.033Z,6.90
2022-11-17T07:34:54.052Z,8.10
2022-11-17T07:35:54.064Z,6.20
2022-11-17T07:36:53.844Z,11.00
2022-11-17T07:37:54.282Z,8.50
2022-11-17T07:38:54.067Z,6.40
2022-11-17T07:39:53.868Z,6.90
2022-11-17T07:40:54.503Z,7.30
2022-11-17T07:41:54.524Z,4.90
2022-11-17T07:42:54.551Z,6.00
2022-11-17T07:43:53.900Z,4.70
2022-11-17T07:44:53.890Z,5.90
2022-11-17T07:45:54.560Z,5.90
2022-11-17T07:46:54.531Z,4.50
2022-11-17T07:47:53.768Z,4.40
2022-11-17T07:48:53.770Z,5.70
2022-11-17T07:49:53.750Z,5.40
2022-11-17T07:50:53.749Z,5.10
2022-11-17T07:51:53.750Z,5.80
2022-11-17T07:52:53.747Z,5.30
2022-11-17T07:53:53.968Z,5.80
2022-11-17T07:54:53.961Z,5.00
2022-11-17T07:55:53.968Z,5.00
2022-11-17T07:56:53.977Z,7.00
2022-11-17T07:57:53.698Z,5.40
2022-11-17T07:58:54.007Z,5.40
2022-11-17T07:59:53.711Z,5.90
2022-11-17T08:00:53.708Z,6.40
2022-11-17T08:01:53.843Z,4.70
2022-11-17T08:02:53.846Z,6.10
2022-11-17T08:03:53.934Z,6.60
2022-11-17T08:06:04.280Z,5.40
2022-11-17T08:07:04.135Z,6.50
2022-11-17T08:08:04.101Z,6.20
2022-11-17T08:09:04.099Z,7.20
2022-11-17T08:10:04.131Z,8.10
2022-11-17T08:11:04.150Z,7.30
2022-11-17T08:12:04.319Z,8.40
2022-11-17T08:13:04.330Z,9.50
2022-11-17T08:14:04.339Z,8.60
2022-11-17T08:15:04.140Z,5.90
2022-11-17T08:16:04.014Z,5.30
2022-11-17T08:17:04.359Z,8.50
2022-11-17T08:18:03.978Z,7.40
2022-11-17T08:19:05.469Z,9.40
2022-11-17T08:20:03.978Z,7.20
2022-11-17T08:21:03.967Z,7.40
2022-11-17T08:22:03.958Z,7.50
2022-11-17T08:23:03.997Z,7.50
2022-11-17T08:24:03.994Z,8.80
2022-11-17T08:25:03.998Z,8.70
2022-11-17T08:26:04.004Z,6.60
2022-11-17T08:27:04.025Z,6.80
2022-11-17T08:28:04.019Z,6.20
2022-11-17T08:29:04.027Z,9.30
2022-11-17T08:30:03.992Z,6.80
2022-11-17T08:31:04.040Z,7.60
2022-11-17T08:32:05.335Z,7.40
2022-11-17T08:33:04.258Z,6.30
2022-11-17T08:34:04.268Z,4.20
2022-11-17T08:35:03.856Z,5.80
2022-11-17T08:36:03.846Z,8.30
2022-11-17T08:37:03.878Z,7.70
2022-11-17T08:38:03.876Z,4.30
2022-11-17T08:39:03.853Z,7.80
2022-11-17T08:40:03.824Z,9.30
2022-11-17T08:41:03.814Z,4.80
2022-11-17T08:42:03.833Z,5.40
2022-11-17T08:43:03.823Z,5.90
2022-11-17T08:44:03.811Z,5.70
2022-11-17T08:45:04.123Z,3.90
2022-11-17T08:46:03.936Z,5.20
2022-11-17T08:47:03.944Z,5.20
2022-11-17T08:48:03.855Z,4.00
2022-11-17T08:49:04.043Z,6.00
2022-11-17T08:50:03.809Z,4.70
2022-11-17T08:51:04.165Z,5.20
2022-11-17T08:52:04.173Z,4.50
2022-11-17T08:53:04.181Z,3.20
2022-11-17T08:54:03.792Z,6.60
2022-11-17T08:55:04.251Z,4.40
2022-11-17T08:56:03.742Z,4.50
2022-11-17T08:57:03.808Z,6.10
2022-11-17T08:58:03.833Z,3.80
2022-11-17T08:59:03.702Z,6.00
2022-11-17T09:00:04.039Z,3.30
2022-11-17T09:01:05.620Z,7.00
2022-11-17T09:02:04.050Z,5.60
2022-11-17T09:03:03.682Z,5.40
2022-11-17T09:04:03.686Z,6.30
2022-11-17T09:05:03.921Z,3.80
2022-11-17T09:06:03.668Z,6.10
2022-11-17T09:07:03.770Z,3.90
2022-11-17T09:08:22.921Z,4.60
2022-11-17T09:09:04.405Z,3.70
2022-11-17T09:10:03.840Z,4.30
2022-11-17T09:11:03.619Z,3.90
2022-11-17T09:12:03.610Z,4.80
2022-11-17T09:13:03.619Z,2.50
2022-11-17T09:14:03.630Z,6.40
2022-11-17T09:15:03.647Z,4.50
2022-11-17T09:16:03.657Z,2.50
2022-11-17T09:17:03.669Z,3.20
2022-11-17T09:18:03.678Z,3.50
2022-11-17T09:19:03.700Z,8.50
2022-11-17T09:20:03.709Z,1.80
2022-11-17T09:21:03.557Z,3.70
2022-11-17T09:22:03.567Z,2.00
2022-11-17T09:23:03.567Z,3.70
2022-11-17T09:24:03.570Z,1.90
2022-11-17T09:25:06.444Z,2.90
2022-11-17T09:26:03.596Z,1.70
2022-11-17T09:27:03.495Z,2.80
2022-11-17T09:28:03.876Z,2.00
2022-11-17T09:29:03.811Z,2.40
2022-11-17T09:30:03.821Z,1.80
2022-11-17T09:31:03.924Z,2.20
2022-11-17T09:32:03.843Z,1.60
2022-11-17T09:33:03.477Z,1.40
2022-11-17T09:34:05.556Z,2.90
2022-11-17T09:35:03.896Z,1.60
2022-11-17T09:36:03.909Z,1.10
2022-11-17T09:37:03.915Z,1.20
2022-11-17T09:38:03.457Z,4.40
2022-11-17T09:39:03.964Z,1.20
2022-11-17T09:40:03.953Z,1.00
2022-11-17T09:41:03.476Z,1.50
2022-11-17T09:42:03.914Z,2.70
2022-11-17T09:43:03.485Z,3.80
2022-11-17T09:44:04.007Z,1.60
2022-11-17T09:45:04.036Z,0.90
2022-11-17T09:46:07.559Z,1.00
2022-11-17T09:47:03.924Z,1.70
2022-11-17T09:48:33.597Z,1.10
2022-11-17T09:49:04.073Z,0.60
2022-11-17T09:50:03.364Z,1.20
2022-11-17T09:51:03.360Z,3.60
2022-11-17T09:52:03.719Z,2.00
2022-11-17T09:53:04.127Z,1.70
2022-11-17T09:54:03.360Z,0.70
2022-11-17T09:55:03.362Z,1.80
2022-11-17T09:56:03.379Z,3.40
2022-11-17T09:57:03.385Z,1.50
2022-11-17T09:58:03.390Z,3.10
2022-11-17T09:59:03.403Z,1.50
2022-11-17T10:00:03.411Z,1.50
2022-11-17T10:01:03.434Z,1.00
2022-11-17T10:02:03.305Z,1.70
2022-11-17T10:03:03.330Z,2.40
2022-11-17T10:04:03.440Z,2.40
2022-11-17T10:05:03.251Z,2.30
2022-11-17T10:06:03.431Z,2.30
2022-11-17T10:07:03.530Z,1.70
2022-11-17T10:08:03.430Z,1.60
2022-11-17T10:09:03.652Z,1.10
2022-11-17T10:10:03.250Z,2.40
2022-11-17T10:11:03.479Z,2.20
2022-11-17T10:12:03.708Z,1.90
2022-11-17T10:13:03.681Z,2.20
2022-11-17T10:14:03.281Z,2.90
2022-11-17T10:15:03.902Z,1.10
2022-11-17T10:16:03.290Z,0.90
2022-11-17T10:17:03.300Z,1.40
2022-11-17T10:18:03.298Z,2.60
2022-11-17T10:19:03.290Z,1.40
2022-11-17T10:20:03.572Z,3.20
2022-11-17T10:21:03.147Z,2.50
2022-11-17T10:22:03.147Z,2.40
2022-11-17T10:23:03.549Z,3.70
2022-11-17T10:24:04.616Z,3.30
2022-11-17T10:25:03.559Z,0.80
2022-11-17T10:26:03.167Z,3.00
2022-11-17T10:27:04.177Z,1.80
2022-11-17T10:28:04.112Z,2.20
2022-11-17T10:29:08.220Z,3.90
2022-11-17T10:30:03.588Z,3.60
2022-11-17T10:31:03.841Z,2.60
2022-11-17T10:32:03.955Z,2.10
2022-11-17T10:33:04.115Z,2.30
2022-11-17T10:34:03.257Z,2.30
2022-11-17T10:35:03.415Z,2.90
2022-11-17T10:36:03.045Z,1.30
2022-11-17T10:37:03.045Z,1.40
2022-11-17T10:38:03.025Z,2.50
2022-11-17T10:39:03.036Z,2.30
2022-11-17T10:40:03.055Z,1.20
2022-11-17T10:41:03.057Z,1.20
2022-11-17T10:42:03.095Z,1.10
2022-11-17T10:43:02.996Z,3.00
2022-11-17T10:44:03.275Z,2.70
2022-11-17T10:45:03.274Z,1.50
2022-11-17T10:46:03.376Z,2.30
2022-11-17T10:47:03.302Z,1.70
2022-11-17T10:48:02.954Z,2.60
2022-11-17T10:49:03.119Z,2.30
2022-11-17T10:50:03.354Z,2.20
2022-11-17T10:51:03.587Z,2.40
2022-11-17T10:52:03.526Z,2.20
2022-11-17T10:53:02.952Z,2.40
2022-11-17T10:54:03.747Z,1.20
2022-11-17T10:55:02.956Z,2.00
2022-11-17T10:56:03.342Z,0.80
2022-11-17T10:57:02.985Z,2.10
2022-11-17T10:58:03.764Z,2.80
2022-11-17T10:59:02.964Z,1.60
2022-11-17T11:00:03.022Z,3.80
2022-11-17T11:01:03.024Z,2.50
2022-11-17T11:02:02.862Z,2.60
2022-11-17T11:03:02.872Z,1.70
2022-11-17T11:04:02.849Z,1.90
2022-11-17T11:05:02.858Z,1.00
2022-11-17T11:06:02.845Z,2.10
2022-11-17T11:07:02.884Z,1.10
2022-11-17T11:08:02.861Z,1.60
2022-11-17T11:09:02.810Z,1.60
2022-11-17T11:10:03.041Z,2.00
2022-11-17T11:11:03.038Z,1.50
2022-11-17T11:12:03.042Z,3.00
2022-11-17T11:13:03.041Z,1.50
2022-11-17T11:14:02.772Z,1.80
2022-11-17T11:15:02.770Z,2.60
2022-11-17T11:16:02.859Z,2.30
2022-11-17T11:17:02.779Z,1.60
2022-11-17T11:18:02.818Z,1.80
2022-11-17T11:19:02.879Z,1.70
2022-11-17T11:20:02.772Z,1.30
2022-11-17T11:21:02.744Z,3.60
2022-11-17T11:22:03.112Z,1.90
2022-11-17T11:23:03.115Z,1.90
2022-11-17T11:24:04.167Z,2.70
2022-11-17T11:25:03.158Z,2.10
2022-11-17T11:26:02.689Z,1.50
2022-11-17T11:27:02.681Z,2.40
2022-11-17T11:28:02.958Z,2.80
2022-11-17T11:29:03.157Z,2.60
2022-11-17T11:30:02.667Z,1.90
2022-11-17T11:31:02.819Z,3.80
2022-11-17T11:32:02.647Z,2.20
2022-11-17T11:33:02.968Z,2.60
2022-11-17T11:34:02.637Z,3.20
2022-11-17T11:35:02.636Z,3.10
2022-11-17T11:36:02.987Z,2.80
2022-11-17T11:37:02.648Z,1.40
2022-11-17T11:38:02.657Z,3.20
2022-11-17T11:39:02.604Z,1.80
2022-11-17T11:40:03.300Z,2.20
2022-11-17T11:41:02.594Z,2.30
2022-11-17T11:42:07.647Z,4.60
2022-11-17T11:43:02.687Z,2.70
2022-11-17T11:44:02.579Z,3.10
2022-11-17T11:45:02.585Z,2.80
2022-11-17T11:46:02.645Z,4.40
2022-11-17T11:47:02.646Z,3.80
2022-11-17T11:48:02.636Z,4.00
2022-11-17T11:49:02.671Z,2.50
2022-11-17T11:50:02.672Z,2.70
2022-11-17T11:51:02.544Z,5.10
2022-11-17T11:52:02.576Z,2.10
2022-11-17T11:53:02.517Z,1.80
2022-11-17T11:54:02.505Z,3.40
2022-11-17T11:55:02.504Z,2.40
2022-11-17T11:56:02.522Z,3.80
2022-11-17T11:57:02.529Z,3.70
2022-11-17T11:58:02.503Z,5.30
2022-11-17T11:59:02.532Z,2.30
2022-11-17T12:00:04.481Z,3.60
2022-11-17T12:01:02.564Z,2.30
2022-11-17T12:02:02.492Z,2.90
2022-11-17T12:03:02.827Z,5.00
2022-11-17T12:04:02.554Z,4.20
2022-11-17T12:05:02.772Z,3.00
2022-11-17T12:06:02.864Z,2.40
2022-11-17T12:07:02.678Z,2.80
2022-11-17T12:08:09.056Z,3.00
2022-11-17T12:09:03.011Z,4.30
2022-11-17T12:10:03.023Z,2.40
2022-11-17T12:11:03.022Z,2.40
2022-11-17T12:12:02.496Z,2.90
2022-11-17T12:13:02.656Z,2.30
2022-11-17T12:14:02.533Z,2.50
2022-11-17T12:15:02.374Z,2.50
2022-11-17T12:16:02.840Z,2.80
2022-11-17T12:17:02.363Z,3.70
2022-11-17T12:18:02.447Z,2.90
2022-11-17T12:19:02.943Z,2.90
2022-11-17T12:20:09.197Z,4.10
2022-11-17T12:21:02.544Z,2.60
2022-11-17T12:22:03.080Z,3.00
2022-11-17T12:23:03.171Z,4.60
2022-11-17T12:24:02.770Z,3.80
2022-11-17T12:25:03.100Z,3.10
2022-11-17T12:26:03.205Z,2.90
2022-11-17T12:27:02.639Z,3.30
2022-11-17T12:28:02.314Z,3.50
2022-11-17T12:29:02.317Z,3.40
2022-11-17T12:30:02.324Z,2.60
2022-11-17T12:31:08.322Z,2.70
2022-11-17T12:32:02.314Z,4.90
2022-11-17T12:33:02.228Z,3.00
2022-11-17T12:34:02.568Z,2.90
2022-11-17T12:35:02.230Z,2.00
2022-11-17T12:36:02.244Z,3.50
2022-11-17T12:37:02.365Z,2.60
2022-11-17T12:38:02.220Z,3.70
2022-11-17T12:39:02.378Z,2.10
2022-11-17T12:40:02.447Z,3.10
2022-11-17T12:41:02.185Z,3.30
2022-11-17T12:42:02.398Z,4.40
2022-11-17T12:43:02.398Z,2.10
2022-11-17T12:44:02.406Z,2.60
2022-11-17T12:45:02.417Z,2.40
2022-11-17T12:46:02.428Z,3.20
2022-11-17T12:47:02.441Z,2.10
2022-11-17T12:48:31.849Z,2.70
2022-11-17T12:49:02.517Z,3.50
2022-11-17T12:50:02.357Z,1.90
2022-11-17T12:51:05.015Z,2.20
2022-11-17T12:52:02.456Z,3.80
2022-11-17T12:53:02.147Z,1.90
2022-11-17T12:54:02.567Z,2.60
2022-11-17T12:55:02.572Z,3.30
2022-11-17T12:56:02.087Z,1.00
2022-11-17T12:57:02.105Z,3.10
2022-11-17T12:58:06.226Z,1.50
2022-11-17T12:59:02.135Z,2.20
2022-11-17T13:00:02.103Z,1.70
2022-11-17T13:01:02.252Z,2.80
2022-11-17T13:02:02.334Z,5.10
2022-11-17T13:03:02.067Z,3.80
2022-11-17T13:04:02.355Z,2.20
2022-11-17T13:05:02.119Z,3.20
2022-11-17T13:06:33.324Z,2.80
2022-11-17T13:07:02.130Z,2.60
2022-11-17T13:08:02.053Z,3.00
2022-11-17T13:09:01.993Z,5.10
2022-11-17T13:10:02.073Z,2.90
2022-11-17T13:11:02.217Z,3.50
2022-11-17T13:12:02.174Z,2.50
2022-11-17T13:13:02.183Z,2.60
2022-11-17T13:14:02.042Z,1.80
2022-11-17T13:15:02.019Z,5.40
2022-11-17T13:16:02.105Z,5.10
2022-11-17T13:17:01.953Z,2.80
2022-11-17T13:18:01.934Z,3.00
2022-11-17T13:19:01.931Z,3.30
2022-11-17T13:20:01.922Z,1.80
2022-11-17T13:21:01.901Z,3.40
2022-11-17T13:22:01.944Z,2.70